createdAt,value
2018-07-07T00:00:39.480Z,63.94
2018-07-07T00:03:08.066Z,64.43
2018-07-07T00:05:36.614Z,64.29
2018-07-07T00:08:05.114Z,64.85
2018-07-07T00:10:33.592Z,64.29
2018-07-07T00:13:02.084Z,64.65
2018-07-07T00:15:30.593Z,65.58
2018-07-07T00:17:59.024Z,65.63
2018-07-07T00:20:27.507Z,65.54
2018-07-07T00:23:17.822Z,65.38
2018-07-07T00:25:46.262Z,65.37
2018-07-07T00:28:14.811Z,65.16
2018-07-07T00:30:43.345Z,65.77
2018-07-07T00:33:11.829Z,65.80
2018-07-07T00:35:40.369Z,66.32
2018-07-07T00:38:16.501Z,66.45
2018-07-07T00:40:45.106Z,66.60
2018-07-07T00:43:13.657Z,66.53
2018-07-07T00:45:42.239Z,66.44
2018-07-07T00:48:10.773Z,66.19
2018-07-07T00:50:39.320Z,66.20
2018-07-07T00:53:07.892Z,66.26
2018-07-07T00:55:36.464Z,66.44
2018-07-07T00:58:05.093Z,66.26
2018-07-07T01:00:52.944Z,66.97
2018-07-07T01:03:22.285Z,66.55
2018-07-07T01:05:50.950Z,66.67
2018-07-07T01:08:19.660Z,66.50
2018-07-07T01:10:48.098Z,66.41
2018-07-07T01:13:21.326Z,66.30
2018-07-07T01:15:49.790Z,66.52
2018-07-07T01:18:18.812Z,66.30
2018-07-07T01:20:47.292Z,66.41
2018-07-07T01:23:15.885Z,66.58
2018-07-07T01:25:44.313Z,67.29
2018-07-07T01:31:26.789Z,66.60
2018-07-07T01:33:55.255Z,66.02
2018-07-07T01:36:23.791Z,66.54
2018-07-07T01:38:52.326Z,66.38
2018-07-07T01:41:20.833Z,67.17
2018-07-07T01:43:49.626Z,67.25
2018-07-07T01:46:18.056Z,66.57
2018-07-07T01:48:46.705Z,66.38
2018-07-07T01:51:15.185Z,65.62
2018-07-07T01:53:43.839Z,65.00
2018-07-07T01:56:12.357Z,65.04
2018-07-07T01:58:40.860Z,65.12
2018-07-07T02:01:09.302Z,64.50
2018-07-07T02:03:37.872Z,64.33
2018-07-07T02:06:06.467Z,63.50
2018-07-07T02:08:34.938Z,64.14
2018-07-07T02:11:03.422Z,63.55
2018-07-07T02:13:31.878Z,63.59
2018-07-07T02:16:00.475Z,63.77
2018-07-07T02:18:29.007Z,63.14
2018-07-07T02:20:57.547Z,62.81
2018-07-07T02:23:25.956Z,62.61
2018-07-07T02:25:54.501Z,62.86
2018-07-07T02:28:22.972Z,62.86
2018-07-07T02:31:00.281Z,62.61
2018-07-07T02:33:28.669Z,61.95
2018-07-07T02:35:57.144Z,61.70
2018-07-07T02:38:25.647Z,62.39
2018-07-07T02:40:54.212Z,63.57
2018-07-07T02:43:22.702Z,63.85
2018-07-07T02:45:51.156Z,64.47
2018-07-07T02:48:19.659Z,64.75
2018-07-07T02:50:48.116Z,64.79
2018-07-07T02:53:16.717Z,64.58
2018-07-07T02:55:52.602Z,64.60
2018-07-07T02:58:21.161Z,64.59
2018-07-07T03:01:01.361Z,65.18
2018-07-07T03:03:29.891Z,65.61
2018-07-07T03:05:58.396Z,65.75
2018-07-07T03:08:26.856Z,66.43
2018-07-07T03:10:55.348Z,66.83
2018-07-07T03:13:23.920Z,66.80
2018-07-07T03:15:52.414Z,67.19
2018-07-07T03:18:20.893Z,67.33
2018-07-07T03:20:49.357Z,67.32
2018-07-07T03:23:17.961Z,67.33
2018-07-07T03:25:46.638Z,67.00
2018-07-07T03:28:15.105Z,67.01
2018-07-07T03:30:43.608Z,66.72
2018-07-07T03:33:12.127Z,66.28
2018-07-07T03:35:40.661Z,65.76
2018-07-07T03:38:12.986Z,65.07
2018-07-07T03:40:41.532Z,64.92
2018-07-07T03:43:10.107Z,64.95
2018-07-07T03:45:38.639Z,65.01
2018-07-07T03:48:07.165Z,64.55
2018-07-07T03:50:35.661Z,64.33
2018-07-07T03:53:22.689Z,64.50
2018-07-07T03:55:51.286Z,64.77
2018-07-07T03:58:19.737Z,64.50
2018-07-07T04:00:48.336Z,64.50
2018-07-07T04:03:16.848Z,64.28
2018-07-07T04:05:45.412Z,64.13
2018-07-07T04:08:14.378Z,64.43
2018-07-07T04:10:43.102Z,65.25
2018-07-07T04:13:11.777Z,66.27
2018-07-07T04:15:40.350Z,65.88
2018-07-07T04:18:08.846Z,64.87
2018-07-07T04:20:37.309Z,64.70
2018-07-07T04:23:06.058Z,64.82
2018-07-07T04:25:34.506Z,64.85
2018-07-07T04:28:02.924Z,64.08
2018-07-07T04:30:31.464Z,62.28
2018-07-07T04:32:59.973Z,60.72
2018-07-07T04:35:28.531Z,59.76
2018-07-07T04:38:05.006Z,58.87
2018-07-07T04:40:33.541Z,57.84
2018-07-07T04:43:23.249Z,57.81
2018-07-07T04:46:01.898Z,58.74
2018-07-07T04:48:30.445Z,58.75
2018-07-07T04:51:01.058Z,58.53
2018-07-07T04:53:29.533Z,58.87
2018-07-07T04:55:58.005Z,59.25
2018-07-07T04:58:26.519Z,59.62
2018-07-07T05:00:54.982Z,59.79
2018-07-07T05:03:23.474Z,59.28
2018-07-07T05:05:51.985Z,58.88
2018-07-07T05:08:20.559Z,58.81
2018-07-07T05:14:15.016Z,58.38
2018-07-07T05:16:43.541Z,58.53
2018-07-07T05:19:16.668Z,58.04
2018-07-07T05:21:45.211Z,57.21
2018-07-07T05:24:14.522Z,56.68
2018-07-07T05:26:43.005Z,56.17
2018-07-07T05:29:45.979Z,55.58
2018-07-07T05:32:14.394Z,55.91
2018-07-07T05:34:42.947Z,55.73
2018-07-07T05:37:11.504Z,55.15
2018-07-07T05:39:40.165Z,54.92
2018-07-07T05:42:08.728Z,54.91
2018-07-07T05:44:37.280Z,54.57
2018-07-07T05:47:05.868Z,55.11
2018-07-07T05:49:34.277Z,54.06
2018-07-07T05:52:02.845Z,53.64
2018-07-07T05:54:31.423Z,52.52
2018-07-07T05:56:59.849Z,52.28
2018-07-07T05:59:28.828Z,52.39
2018-07-07T06:01:57.584Z,52.07
2018-07-07T06:04:26.174Z,51.31
2018-07-07T06:06:55.007Z,51.27
2018-07-07T06:09:23.556Z,50.72
2018-07-07T06:11:52.192Z,50.41
2018-07-07T06:14:20.725Z,50.30
2018-07-07T06:16:49.202Z,50.29
2018-07-07T06:19:17.644Z,49.85
2018-07-07T06:21:46.102Z,49.37
2018-07-07T06:24:14.845Z,49.51
2018-07-07T06:26:43.544Z,49.22
2018-07-07T06:29:12.015Z,48.58
2018-07-07T06:31:40.582Z,48.82
2018-07-07T06:34:09.092Z,48.46
2018-07-07T06:36:37.697Z,48.04
2018-07-07T06:39:06.711Z,47.62
2018-07-07T06:41:35.253Z,47.30
2018-07-07T06:44:03.988Z,47.11
2018-07-07T06:46:32.513Z,47.40
2018-07-07T06:49:01.019Z,46.93
2018-07-07T06:51:29.460Z,46.47
2018-07-07T06:53:58.112Z,45.97
2018-07-07T06:56:26.640Z,46.00
2018-07-07T06:58:55.064Z,45.74
2018-07-07T07:01:23.792Z,45.89
2018-07-07T07:03:52.326Z,46.37
2018-07-07T07:06:20.899Z,45.69
2018-07-07T07:08:49.401Z,45.38
2018-07-07T07:11:17.876Z,45.24
2018-07-07T07:13:46.316Z,45.35
2018-07-07T07:16:14.756Z,45.09
2018-07-07T07:18:43.332Z,44.68
2018-07-07T07:21:11.867Z,44.20
2018-07-07T07:23:40.338Z,43.84
2018-07-07T07:26:08.892Z,43.66
2018-07-07T07:28:37.395Z,43.43
2018-07-07T07:31:05.932Z,43.03
2018-07-07T07:33:34.769Z,43.11
2018-07-07T07:36:07.184Z,42.94
2018-07-07T07:38:35.723Z,42.79
2018-07-07T07:41:04.278Z,42.62
2018-07-07T07:43:32.831Z,42.59
2018-07-07T07:46:01.297Z,41.81
2018-07-07T07:48:30.123Z,41.44
2018-07-07T07:50:58.758Z,40.92
2018-07-07T07:53:27.174Z,40.58
2018-07-07T07:55:59.748Z,39.66
2018-07-07T07:58:28.181Z,40.13
2018-07-07T08:00:56.676Z,39.72
2018-07-07T08:04:01.746Z,38.72
2018-07-07T08:06:30.201Z,38.72
2018-07-07T08:08:58.929Z,37.86
2018-07-07T08:11:27.382Z,38.77
2018-07-07T08:13:56.037Z,38.47
2018-07-07T08:16:24.575Z,37.61
2018-07-07T08:18:53.163Z,38.35
2018-07-07T08:21:21.700Z,38.04
2018-07-07T08:23:50.183Z,38.07
2018-07-07T08:26:18.673Z,37.71
2018-07-07T08:28:47.157Z,37.98
2018-07-07T08:31:15.588Z,37.10
2018-07-07T08:33:44.209Z,36.46
2018-07-07T08:36:12.828Z,36.39
2018-07-07T08:38:41.382Z,35.81
2018-07-07T08:41:13.385Z,36.30
2018-07-07T08:43:42.763Z,36.44
2018-07-07T08:46:12.001Z,35.92
2018-07-07T08:48:40.584Z,35.62
2018-07-07T08:51:09.133Z,35.31
2018-07-07T08:53:37.599Z,35.75
2018-07-07T08:56:06.127Z,35.92
2018-07-07T08:58:34.682Z,36.74
2018-07-07T09:01:06.737Z,35.77
2018-07-07T09:03:35.215Z,35.75
2018-07-07T09:06:03.672Z,35.90
2018-07-07T09:08:32.178Z,35.64
2018-07-07T09:11:00.644Z,36.01
2018-07-07T09:13:29.226Z,35.39
2018-07-07T09:15:57.661Z,36.24
2018-07-07T09:18:26.089Z,36.08
2018-07-07T09:20:54.613Z,36.59
2018-07-07T09:23:23.168Z,36.72
2018-07-07T09:25:51.668Z,36.35
2018-07-07T09:28:20.245Z,36.08
2018-07-07T09:30:48.697Z,35.00
2018-07-07T09:33:17.205Z,34.74
2018-07-07T09:35:45.721Z,35.40
2018-07-07T09:38:14.264Z,35.21
2018-07-07T09:40:42.785Z,35.71
2018-07-07T09:43:11.314Z,35.06
2018-07-07T09:45:39.792Z,35.40
2018-07-07T09:48:08.293Z,35.23
2018-07-07T09:50:36.765Z,34.49
2018-07-07T09:53:05.585Z,34.32
2018-07-07T09:55:34.145Z,34.97
2018-07-07T09:58:02.777Z,34.59
2018-07-07T10:00:36.743Z,34.11
2018-07-07T10:03:05.204Z,34.16
2018-07-07T10:05:33.813Z,33.62
2018-07-07T10:08:02.369Z,32.86
2018-07-07T10:10:30.874Z,32.79
2018-07-07T10:12:59.346Z,32.59
2018-07-07T10:15:27.815Z,32.18
2018-07-07T10:17:56.325Z,31.88
2018-07-07T10:20:24.812Z,32.55
2018-07-07T10:22:53.698Z,32.74
2018-07-07T10:25:22.132Z,32.34
2018-07-07T10:27:50.666Z,31.06
2018-07-07T10:30:19.173Z,31.65
2018-07-07T10:32:47.812Z,31.64
2018-07-07T10:35:16.437Z,31.73
2018-07-07T10:37:44.892Z,31.97
2018-07-07T10:40:13.361Z,31.34
2018-07-07T10:42:42.041Z,31.41
2018-07-07T10:45:10.505Z,30.93
2018-07-07T10:47:39.010Z,31.33
2018-07-07T10:50:07.529Z,30.97
2018-07-07T10:52:36.136Z,30.47
2018-07-07T10:55:04.673Z,29.96
2018-07-07T10:57:33.150Z,30.29
2018-07-07T11:00:01.726Z,30.21
2018-07-07T11:02:30.192Z,29.70
2018-07-07T11:04:58.705Z,29.22
2018-07-07T11:07:27.153Z,28.23
2018-07-07T11:09:55.740Z,29.55
2018-07-07T11:12:24.252Z,30.12
2018-07-07T11:14:52.848Z,29.27
2018-07-07T11:17:21.417Z,29.51
2018-07-07T11:19:50.224Z,29.49
2018-07-07T11:22:18.680Z,29.81
2018-07-07T11:24:47.150Z,29.86
2018-07-07T11:27:15.795Z,29.19
2018-07-07T11:29:44.374Z,28.28
2018-07-07T11:32:12.950Z,28.53
2018-07-07T11:34:41.485Z,27.26
2018-07-07T11:37:09.984Z,27.34
2018-07-07T11:39:38.594Z,26.38
2018-07-07T11:42:07.180Z,26.36
2018-07-07T11:44:35.726Z,26.76
2018-07-07T11:47:04.241Z,25.71
2018-07-07T11:49:32.774Z,25.47
2018-07-07T11:52:01.455Z,25.33
2018-07-07T11:54:29.932Z,25.17
2018-07-07T11:56:58.435Z,25.39
2018-07-07T11:59:27.106Z,24.57
2018-07-07T12:01:55.591Z,24.35
2018-07-07T12:04:24.226Z,24.27
2018-07-07T12:06:52.871Z,24.58
2018-07-07T12:09:21.331Z,24.29
2018-07-07T12:11:49.847Z,24.52
2018-07-07T12:14:18.935Z,24.38
2018-07-07T12:16:47.508Z,23.90
2018-07-07T12:19:15.990Z,24.44
2018-07-07T12:21:44.476Z,23.35
2018-07-07T12:24:17.098Z,23.51
2018-07-07T12:26:45.658Z,23.10
2018-07-07T12:29:14.210Z,23.25
2018-07-07T12:32:22.342Z,22.79
2018-07-07T12:34:50.933Z,23.04
2018-07-07T12:37:19.405Z,22.56
2018-07-07T12:39:47.861Z,22.44
2018-07-07T12:42:16.355Z,22.79
2018-07-07T12:44:45.182Z,21.93
2018-07-07T12:47:13.729Z,22.47
2018-07-07T12:49:42.296Z,22.95
2018-07-07T12:52:10.775Z,23.00
2018-07-07T12:54:39.331Z,22.62
2018-07-07T12:57:08.209Z,22.35
2018-07-07T12:59:36.745Z,22.66
2018-07-07T13:02:05.312Z,22.40
2018-07-07T13:04:33.788Z,22.44
2018-07-07T13:07:02.404Z,22.32
2018-07-07T13:09:30.876Z,22.11
2018-07-07T13:11:59.553Z,22.27
2018-07-07T13:14:27.985Z,22.24
2018-07-07T13:16:56.609Z,21.91
2018-07-07T13:19:25.088Z,22.49
2018-07-07T13:21:53.593Z,22.25
2018-07-07T13:24:22.088Z,22.93
2018-07-07T13:26:50.529Z,22.94
2018-07-07T13:29:18.982Z,21.77
2018-07-07T13:31:47.420Z,21.48
2018-07-07T13:34:15.880Z,21.32
2018-07-07T13:36:44.449Z,20.97
2018-07-07T13:39:13.238Z,21.92
2018-07-07T13:41:41.744Z,21.91
2018-07-07T13:44:11.026Z,22.04
2018-07-07T13:46:50.272Z,21.85
2018-07-07T13:49:18.841Z,22.28
2018-07-07T13:51:47.316Z,21.85
2018-07-07T13:54:15.881Z,22.10
2018-07-07T13:56:44.361Z,22.54
2018-07-07T13:59:12.920Z,22.82
2018-07-07T14:01:41.483Z,23.26
2018-07-07T14:04:10.082Z,23.02
2018-07-07T14:06:38.673Z,22.31
2018-07-07T14:09:07.977Z,22.45
2018-07-07T14:11:36.451Z,22.07
2018-07-07T14:14:05.071Z,22.43
2018-07-07T14:16:33.589Z,22.76
2018-07-07T14:19:02.000Z,22.79
2018-07-07T14:21:30.440Z,23.11
2018-07-07T14:23:58.934Z,23.76
2018-07-07T14:26:27.584Z,23.55
2018-07-07T14:28:56.052Z,24.49
2018-07-07T14:31:24.641Z,23.78
2018-07-07T14:33:53.153Z,23.58
2018-07-07T14:36:21.807Z,23.15
2018-07-07T14:38:50.314Z,22.70
2018-07-07T14:41:20.262Z,22.97
2018-07-07T14:43:57.856Z,22.99
2018-07-07T14:46:27.025Z,23.05
2018-07-07T14:48:55.735Z,23.54
2018-07-07T14:51:24.320Z,23.55
2018-07-07T14:53:52.958Z,23.45
2018-07-07T14:56:22.589Z,24.49
2018-07-07T14:58:51.357Z,24.46
2018-07-07T15:01:20.146Z,24.60
2018-07-07T15:03:48.712Z,24.46
2018-07-07T15:06:17.353Z,25.39
2018-07-07T15:08:45.937Z,25.97
2018-07-07T15:11:14.667Z,26.08
2018-07-07T15:13:43.180Z,26.47
2018-07-07T15:16:11.744Z,26.11
2018-07-07T15:18:40.210Z,26.64
2018-07-07T15:21:16.585Z,26.02
2018-07-07T15:23:45.070Z,26.67
2018-07-07T15:26:13.516Z,26.44
2018-07-07T15:28:42.013Z,26.38
2018-07-07T15:31:10.550Z,27.04
2018-07-07T15:33:39.149Z,26.63
2018-07-07T15:36:07.716Z,26.53
2018-07-07T15:38:36.273Z,26.52
2018-07-07T15:41:04.885Z,26.04
2018-07-07T15:43:33.391Z,26.41
2018-07-07T15:46:01.990Z,25.91
2018-07-07T15:48:30.493Z,26.58
2018-07-07T15:50:59.072Z,26.38
2018-07-07T15:53:27.544Z,26.69
2018-07-07T15:55:56.056Z,26.39
2018-07-07T15:58:24.631Z,26.85
2018-07-07T16:00:53.140Z,27.48
2018-07-07T16:03:21.676Z,27.22
2018-07-07T16:05:50.411Z,27.36
2018-07-07T16:08:18.958Z,27.33
2018-07-07T16:10:47.500Z,27.38
2018-07-07T16:13:16.095Z,27.93
2018-07-07T16:15:44.718Z,28.20
2018-07-07T16:18:13.296Z,28.27
2018-07-07T16:20:41.819Z,28.57
2018-07-07T16:23:10.370Z,29.08
2018-07-07T16:25:38.822Z,28.43
2018-07-07T16:28:07.481Z,28.91
2018-07-07T16:30:36.308Z,28.93
2018-07-07T16:33:04.940Z,29.72
2018-07-07T16:35:33.476Z,29.18
2018-07-07T16:38:02.013Z,29.68
2018-07-07T16:40:30.549Z,30.06
2018-07-07T16:43:00.349Z,30.20
2018-07-07T16:45:28.953Z,30.32
2018-07-07T16:47:57.436Z,30.26
2018-07-07T16:50:31.965Z,30.31
2018-07-07T16:53:00.555Z,30.11
2018-07-07T16:55:29.029Z,30.50
2018-07-07T16:57:57.630Z,30.85
2018-07-07T17:00:26.217Z,31.18
2018-07-07T17:02:55.205Z,30.89
2018-07-07T17:05:23.794Z,31.77
2018-07-07T17:07:52.470Z,31.68
2018-07-07T17:10:21.120Z,31.87
2018-07-07T17:12:49.849Z,32.07
2018-07-07T17:15:18.431Z,32.36
2018-07-07T17:17:47.541Z,32.93
2018-07-07T17:20:15.999Z,32.62
2018-07-07T17:22:45.726Z,32.81
2018-07-07T17:25:14.268Z,33.15
2018-07-07T17:27:43.408Z,33.39
2018-07-07T17:30:12.219Z,33.17
2018-07-07T17:32:40.916Z,33.54
2018-07-07T17:35:09.554Z,33.45
2018-07-07T17:37:38.097Z,34.09
2018-07-07T17:40:06.684Z,34.37
2018-07-07T17:42:35.375Z,34.78
2018-07-07T17:45:03.875Z,34.57
2018-07-07T17:47:32.664Z,35.08
2018-07-07T17:50:03.129Z,34.89
2018-07-07T17:52:33.592Z,35.61
2018-07-07T17:55:03.302Z,35.48
2018-07-07T17:57:31.834Z,36.20
2018-07-07T18:00:00.506Z,36.57
2018-07-07T18:02:29.088Z,36.64
2018-07-07T18:04:57.674Z,37.13
2018-07-07T18:07:26.254Z,37.06
2018-07-07T18:09:54.805Z,37.58
2018-07-07T18:12:23.256Z,37.62
2018-07-07T18:14:51.751Z,37.73
2018-07-07T18:17:20.239Z,38.04
2018-07-07T18:19:48.840Z,38.32
2018-07-07T18:22:17.278Z,38.78
2018-07-07T18:24:45.708Z,38.58
2018-07-07T18:27:14.304Z,39.22
2018-07-07T18:29:42.965Z,39.46
2018-07-07T18:32:11.549Z,39.19
2018-07-07T18:34:40.125Z,39.77
2018-07-07T18:37:08.580Z,39.30
2018-07-07T18:39:37.096Z,39.02
2018-07-07T18:42:05.692Z,38.89
2018-07-07T18:44:34.117Z,38.85
2018-07-07T18:47:02.650Z,38.77
2018-07-07T18:49:55.693Z,38.93
2018-07-07T18:52:24.248Z,39.28
2018-07-07T18:54:52.802Z,38.74
2018-07-07T18:57:21.316Z,39.32
2018-07-07T18:59:50.045Z,39.47
2018-07-07T19:02:18.597Z,39.45
2018-07-07T19:04:47.051Z,39.41
2018-07-07T19:07:15.685Z,39.40
2018-07-07T19:09:44.172Z,39.58
2018-07-07T19:12:12.624Z,40.14
2018-07-07T19:14:41.132Z,40.51
2018-07-07T19:17:09.664Z,40.56
2018-07-07T19:19:38.229Z,40.87
2018-07-07T19:22:12.075Z,41.49
2018-07-07T19:24:45.832Z,41.54
2018-07-07T19:27:14.316Z,41.63
2018-07-07T19:29:42.798Z,41.66
2018-07-07T19:32:16.518Z,41.48
2018-07-07T19:34:50.362Z,41.41
2018-07-07T19:37:20.600Z,41.14
2018-07-07T19:39:49.120Z,41.27
2018-07-07T19:42:17.865Z,40.88
2018-07-07T19:44:46.481Z,41.03
2018-07-07T19:47:15.034Z,40.63
2018-07-07T19:49:43.659Z,40.90
2018-07-07T19:52:12.233Z,40.42
2018-07-07T19:54:40.669Z,40.36
2018-07-07T19:57:09.208Z,40.55
2018-07-07T19:59:37.874Z,40.13
2018-07-07T20:02:06.452Z,40.90
2018-07-07T20:04:35.034Z,40.02
2018-07-07T20:07:03.550Z,40.30
2018-07-07T20:09:32.097Z,40.79
2018-07-07T20:12:00.809Z,41.05
2018-07-07T20:14:29.389Z,41.06
2018-07-07T20:17:08.228Z,40.99
2018-07-07T20:19:53.410Z,41.07
2018-07-07T20:22:21.966Z,41.79
2018-07-07T20:24:50.552Z,41.63
2018-07-07T20:27:24.430Z,41.79
2018-07-07T20:29:53.050Z,42.05
2018-07-07T20:32:26.923Z,41.84
2018-07-07T20:34:55.460Z,42.43
2018-07-07T20:37:24.096Z,42.42
2018-07-07T20:39:52.673Z,42.49
2018-07-07T20:42:21.277Z,42.16
2018-07-07T20:44:49.902Z,42.47
2018-07-07T20:47:18.563Z,42.90
2018-07-07T20:49:47.125Z,42.61
2018-07-07T20:52:15.613Z,42.99
2018-07-07T20:54:44.091Z,42.27
2018-07-07T20:57:12.618Z,42.91
2018-07-07T20:59:41.057Z,43.27
2018-07-07T21:02:09.665Z,44.21
2018-07-07T21:04:38.125Z,44.12
2018-07-07T21:07:06.762Z,44.19
2018-07-07T21:09:35.243Z,45.16
2018-07-07T21:12:03.765Z,45.37
2018-07-07T21:14:32.387Z,45.33
2018-07-07T21:17:00.934Z,45.58
2018-07-07T21:19:29.380Z,46.04
2018-07-07T21:21:57.908Z,46.53
2018-07-07T21:24:26.469Z,47.22
2018-07-07T21:26:55.001Z,47.85
2018-07-07T21:29:23.643Z,48.25
2018-07-07T21:31:52.196Z,48.39
2018-07-07T21:34:20.751Z,47.56
2018-07-07T21:36:49.220Z,47.23
2018-07-07T21:39:17.773Z,47.39
2018-07-07T21:41:46.324Z,46.75
2018-07-07T21:44:14.783Z,47.22
2018-07-07T21:46:43.370Z,46.90
2018-07-07T21:49:11.941Z,47.37
2018-07-07T21:51:40.519Z,47.29
2018-07-07T21:54:09.196Z,46.84
2018-07-07T21:56:37.645Z,46.94
2018-07-07T21:59:11.571Z,47.84
2018-07-07T22:05:07.044Z,49.25
2018-07-07T22:07:39.956Z,49.13
2018-07-07T22:10:08.732Z,50.06
2018-07-07T22:12:37.344Z,49.75
2018-07-07T22:15:05.919Z,49.75
2018-07-07T22:17:34.457Z,49.54
2018-07-07T22:20:02.956Z,49.93
2018-07-07T22:22:31.520Z,49.75
2018-07-07T22:25:00.084Z,49.83
2018-07-07T22:27:28.601Z,50.01
2018-07-07T22:29:57.227Z,50.43
2018-07-07T22:32:25.791Z,50.42
2018-07-07T22:34:54.334Z,50.84
2018-07-07T22:37:22.938Z,51.09
2018-07-07T22:39:51.360Z,50.84
2018-07-07T22:42:20.092Z,51.10
2018-07-07T22:44:49.509Z,50.79
2018-07-07T22:47:18.079Z,50.67
2018-07-07T22:49:46.584Z,51.68
2018-07-07T22:52:15.156Z,52.40
2018-07-07T22:54:43.780Z,52.24
2018-07-07T22:57:12.251Z,53.37
2018-07-07T22:59:40.797Z,53.22
2018-07-07T23:02:09.286Z,53.48
2018-07-07T23:04:37.736Z,53.88
2018-07-07T23:07:06.482Z,54.60
2018-07-07T23:09:35.025Z,54.67
2018-07-07T23:12:03.501Z,54.88
2018-07-07T23:14:32.006Z,55.00
2018-07-07T23:17:01.810Z,55.40
2018-07-07T23:19:30.263Z,56.09
2018-07-07T23:21:58.868Z,56.29
2018-07-07T23:24:27.325Z,57.02
2018-07-07T23:26:55.886Z,57.63
2018-07-07T23:29:24.434Z,57.92
2018-07-07T23:31:52.895Z,58.53
2018-07-07T23:34:21.365Z,58.09
2018-07-07T23:36:49.797Z,58.68
2018-07-07T23:39:18.296Z,59.05
2018-07-07T23:41:46.861Z,59.27
2018-07-07T23:44:15.327Z,59.35
2018-07-07T23:46:43.860Z,59.21
2018-07-07T23:49:12.478Z,59.64
2018-07-07T23:51:41.207Z,60.29
2018-07-07T23:54:11.349Z,60.71
2018-07-07T23:56:40.609Z,60.66
2018-07-07T23:59:09.178Z,61.17
